Time;durP1;ratioP1;P1;durP2;ratioP2;P2;SDS_P1;SDS_P2;PMS_P1;PMS_P2;Temp;Humidity;BMP_temperature;BMP_pressure;BME280_temperature;BME280_humidity;BME280_pressure;Samples;Min_cycle;Max_cycle;Signal;HPM_P1;HPM_P2
2021/11/16 00:00:24;;;;;;;14.05;7.65;;;10.80;90.30;;;;;;5017269;28;20159;-50
2021/11/16 00:02:51;;;;;;;11.75;6.78;;;10.80;90.10;;;;;;5016394;28;20181;-54
2021/11/16 00:05:18;;;;;;;12.68;8.15;;;10.80;90.10;;;;;;5024749;28;20091;-54
2021/11/16 00:07:48;;;;;;;14.15;8.90;;;10.80;90.10;;;;;;5026689;28;20140;-54
2021/11/16 00:10:14;;;;;;;11.48;7.78;;;10.80;90.10;;;;;;5026348;28;20136;-55
2021/11/16 00:12:41;;;;;;;16.58;9.15;;;10.80;90.20;;;;;;5025883;28;20069;-53
2021/11/16 00:15:08;;;;;;;11.38;8.20;;;10.80;90.10;;;;;;5024159;28;20107;-57
2021/11/16 00:17:36;;;;;;;11.60;7.20;;;10.80;89.80;;;;;;5021988;28;20079;-56
2021/11/16 00:20:06;;;;;;;15.07;7.68;;;10.80;90.00;;;;;;5022118;28;20127;-55
2021/11/16 00:22:33;;;;;;;18.52;9.50;;;10.80;90.00;;;;;;5025391;28;20049;-54
2021/11/16 00:27:42;;;;;;;13.02;8.07;;;10.90;90.10;;;;;;5026152;28;20520;-55
2021/11/16 00:30:09;;;;;;;14.57;9.05;;;10.90;90.00;;;;;;5024324;28;20077;-55
2021/11/16 00:32:37;;;;;;;13.60;8.60;;;10.80;89.60;;;;;;5023061;28;20073;-57
2021/11/16 00:35:04;;;;;;;15.50;7.63;;;10.90;89.70;;;;;;5025061;28;20111;-56
2021/11/16 00:37:32;;;;;;;13.73;8.48;;;10.90;89.40;;;;;;5021834;28;20049;-59
2021/11/16 00:40:00;;;;;;;15.00;8.07;;;10.80;89.40;;;;;;5024341;28;20560;-57
2021/11/16 00:42:27;;;;;;;13.63;7.45;;;10.70;89.20;;;;;;5025975;28;20100;-55
2021/11/16 00:44:54;;;;;;;13.25;8.25;;;10.70;89.40;;;;;;5022766;28;20053;-58
2021/11/16 00:47:21;;;;;;;13.52;7.93;;;10.70;89.80;;;;;;5030083;28;20084;-57
2021/11/16 00:49:48;;;;;;;16.58;8.27;;;10.70;89.80;;;;;;5030170;28;20216;-54
2021/11/16 00:52:15;;;;;;;12.88;7.93;;;10.70;89.70;;;;;;5030204;28;20045;-56
2021/11/16 00:54:41;;;;;;;12.18;7.07;;;10.70;89.40;;;;;;5030079;28;20052;-57
2021/11/16 00:57:08;;;;;;;12.95;8.98;;;10.70;89.50;;;;;;5022420;28;20045;-57
2021/11/16 00:59:35;;;;;;;16.13;8.38;;;10.70;89.30;;;;;;5029921;28;20539;-56
2021/11/16 01:02:02;;;;;;;15.95;8.38;;;10.70;89.20;;;;;;5025164;28;20832;-54
2021/11/16 01:04:29;;;;;;;14.07;8.02;;;10.80;89.50;;;;;;5027297;28;20049;-57
2021/11/16 01:06:56;;;;;;;14.65;7.75;;;10.70;89.40;;;;;;5029804;28;20041;-56
2021/11/16 01:09:24;;;;;;;15.50;8.20;;;10.70;90.00;;;;;;5030001;28;20089;-55
2021/11/16 01:11:50;;;;;;;14.10;8.45;;;10.70;89.70;;;;;;5026550;28;20085;-56
2021/11/16 01:14:18;;;;;;;16.15;8.32;;;10.70;90.30;;;;;;5030068;28;20045;-58
2021/11/16 01:16:45;;;;;;;13.23;7.90;;;10.80;90.10;;;;;;5029834;28;20441;-54
2021/11/16 01:19:12;;;;;;;13.77;8.02;;;10.80;90.00;;;;;;5029502;28;20049;-57
2021/11/16 01:21:38;;;;;;;12.60;8.05;;;10.80;90.10;;;;;;5026094;28;20132;-55
2021/11/16 01:24:07;;;;;;;12.05;8.38;;;10.80;90.00;;;;;;5019312;28;20072;-58
2021/11/16 01:26:34;;;;;;;17.08;9.88;;;10.70;90.00;;;;;;5029208;28;20548;-56
2021/11/16 01:29:02;;;;;;;15.30;9.30;;;10.70;90.20;;;;;;5025331;28;20057;-56
2021/11/16 01:31:28;;;;;;;11.77;8.43;;;10.70;90.10;;;;;;5023970;28;20081;-56
2021/11/16 01:33:57;;;;;;;15.05;8.50;;;10.70;90.10;;;;;;5029218;28;20121;-55
2021/11/16 01:36:24;;;;;;;11.70;7.45;;;10.70;90.30;;;;;;5028566;28;20073;-56
2021/11/16 01:38:53;;;;;;;12.93;8.30;;;10.60;90.20;;;;;;5025486;28;20443;-59
2021/11/16 01:41:20;;;;;;;17.50;8.25;;;10.60;90.20;;;;;;5026153;28;20088;-58
2021/11/16 01:43:46;;;;;;;17.40;8.27;;;10.70;90.20;;;;;;5020564;28;20041;-56
2021/11/16 01:46:14;;;;;;;14.13;7.78;;;10.70;90.30;;;;;;5028975;28;20527;-56
2021/11/16 01:48:42;;;;;;;13.00;8.25;;;10.70;90.30;;;;;;5028827;28;20045;-56
2021/11/16 01:51:09;;;;;;;12.43;8.10;;;10.70;90.30;;;;;;5028873;28;20455;-56
2021/11/16 01:53:36;;;;;;;14.82;7.55;;;10.60;90.20;;;;;;5028587;28;20136;-59
2021/11/16 01:56:04;;;;;;;16.05;8.98;;;10.70;90.20;;;;;;5019863;28;20080;-55
2021/11/16 01:58:31;;;;;;;12.90;8.57;;;10.70;90.30;;;;;;5024081;28;20087;-56
2021/11/16 02:00:58;;;;;;;10.95;7.40;;;10.70;90.30;;;;;;5028115;28;20073;-57
2021/11/16 02:03:25;;;;;;;10.95;7.00;;;10.60;90.40;;;;;;5020714;28;20041;-55
2021/11/16 02:05:54;;;;;;;14.23;6.97;;;10.70;90.40;;;;;;5018200;28;20081;-57
2021/11/16 02:08:21;;;;;;;12.85;7.57;;;10.60;90.20;;;;;;5019435;28;20124;-55
2021/11/16 02:10:50;;;;;;;13.38;8.35;;;10.70;89.80;;;;;;5029282;28;20076;-57
2021/11/16 02:13:19;;;;;;;14.00;7.15;;;10.70;89.40;;;;;;5028423;28;20472;-59
2021/11/16 02:15:47;;;;;;;13.18;7.30;;;10.60;88.90;;;;;;5030159;28;20045;-56
2021/11/16 02:18:14;;;;;;;13.80;8.95;;;10.60;89.00;;;;;;5021408;28;20137;-58
2021/11/16 02:20:43;;;;;;;11.18;7.82;;;10.70;89.50;;;;;;5029259;28;20080;-56
2021/11/16 02:23:10;;;;;;;16.30;8.18;;;10.70;89.30;;;;;;5028596;28;20045;-59
2021/11/16 02:25:37;;;;;;;11.95;8.02;;;10.70;89.30;;;;;;5028560;28;20088;-58
2021/11/16 02:28:04;;;;;;;13.27;7.80;;;10.70;88.20;;;;;;5028447;28;20521;-56
2021/11/16 02:30:31;;;;;;;13.73;8.85;;;10.70;88.10;;;;;;5027793;28;20053;-57
2021/11/16 02:32:59;;;;;;;15.00;8.73;;;10.70;88.50;;;;;;5024403;28;20657;-55
2021/11/16 02:35:26;;;;;;;12.13;7.93;;;10.80;88.30;;;;;;5028450;28;20058;-56
2021/11/16 02:37:55;;;;;;;13.65;8.00;;;10.70;88.30;;;;;;5028426;28;20073;-56
2021/11/16 02:40:22;;;;;;;12.63;8.70;;;10.70;88.40;;;;;;5021121;28;20111;-57
2021/11/16 02:42:49;;;;;;;11.43;7.72;;;10.70;88.50;;;;;;5026076;28;20045;-56
2021/11/16 02:45:16;;;;;;;12.70;8.73;;;10.70;88.80;;;;;;5026118;28;20095;-57
2021/11/16 02:47:43;;;;;;;10.90;7.38;;;10.70;88.30;;;;;;5027857;28;20088;-55
2021/11/16 02:50:10;;;;;;;12.90;8.90;;;10.70;87.70;;;;;;5019505;28;20085;-56
2021/11/16 02:52:38;;;;;;;14.30;8.52;;;10.70;87.70;;;;;;5028031;28;20493;-56
2021/11/16 02:55:06;;;;;;;15.68;9.07;;;10.70;87.70;;;;;;5027069;28;20084;-56
2021/11/16 02:57:32;;;;;;;15.43;9.15;;;10.60;88.00;;;;;;5026731;28;20087;-55
2021/11/16 03:00:00;;;;;;;17.38;8.40;;;10.60;88.30;;;;;;5027967;28;20138;-56
2021/11/16 03:02:27;;;;;;;16.88;8.68;;;10.60;89.30;;;;;;5022303;28;20123;-57
2021/11/16 03:04:54;;;;;;;13.85;8.90;;;10.50;89.10;;;;;;5016910;28;20214;-57
2021/11/16 03:07:31;;;;;;;15.95;8.23;;;10.60;89.60;;;;;;5027354;28;20429;-56
2021/11/16 03:09:59;;;;;;;15.48;7.50;;;10.40;90.20;;;;;;5023233;28;20041;-55
2021/11/16 03:12:29;;;;;;;13.25;8.23;;;10.40;90.10;;;;;;5026023;28;20080;-56
2021/11/16 03:14:56;;;;;;;15.38;8.40;;;10.30;90.30;;;;;;5021634;28;20084;-55
2021/11/16 03:17:23;;;;;;;17.88;8.20;;;10.30;90.40;;;;;;5023609;28;20045;-56
2021/11/16 03:19:51;;;;;;;15.57;8.77;;;10.40;90.40;;;;;;5019173;28;20073;-56
2021/11/16 03:22:17;;;;;;;13.98;7.90;;;10.40;90.50;;;;;;5021854;28;20077;-56
2021/11/16 03:24:45;;;;;;;14.77;8.20;;;10.40;90.50;;;;;;5025937;28;20053;-56
2021/11/16 03:27:15;;;;;;;13.35;7.55;;;10.40;90.60;;;;;;5020093;28;20049;-55
2021/11/16 03:29:48;;;;;;;18.67;7.90;;;10.40;90.60;;;;;;5027056;28;20125;-57
2021/11/16 03:32:18;;;;;;;17.67;8.13;;;10.40;90.70;;;;;;5026965;28;20060;-57
2021/11/16 03:34:46;;;;;;;12.90;7.75;;;10.40;90.80;;;;;;5026488;28;20135;-56
2021/11/16 03:37:14;;;;;;;18.90;7.93;;;10.30;90.80;;;;;;5026575;28;20077;-57
2021/11/16 03:39:41;;;;;;;11.55;7.70;;;10.30;91.10;;;;;;5027037;28;20099;-54
2021/11/16 03:42:09;;;;;;;14.95;8.23;;;10.30;91.10;;;;;;5025654;28;20056;-56
2021/11/16 03:44:38;;;;;;;26.73;10.68;;;10.30;91.20;;;;;;5026135;28;20049;-57
2021/11/16 03:47:05;;;;;;;17.85;8.35;;;10.30;91.20;;;;;;5021719;28;20073;-55
2021/11/16 03:49:31;;;;;;;13.50;8.25;;;10.30;91.20;;;;;;5024743;28;20041;-55
2021/11/16 03:51:58;;;;;;;14.00;9.02;;;10.30;91.30;;;;;;5019808;28;20080;-55
2021/11/16 03:54:25;;;;;;;18.67;8.43;;;10.30;91.30;;;;;;5026112;28;20140;-56
2021/11/16 03:56:52;;;;;;;13.93;8.25;;;10.30;91.60;;;;;;5026635;28;20097;-57
2021/11/16 03:59:19;;;;;;;20.42;9.65;;;10.20;91.50;;;;;;5027569;28;20037;-57
2021/11/16 04:01:46;;;;;;;21.20;8.77;;;10.10;91.60;;;;;;5022954;28;20045;-56
2021/11/16 04:04:17;;;;;;;15.70;8.10;;;10.00;91.70;;;;;;5025769;28;20041;-56
2021/11/16 04:06:44;;;;;;;14.18;7.90;;;10.10;91.80;;;;;;5020642;28;20073;-56
2021/11/16 04:09:11;;;;;;;23.77;10.23;;;10.10;91.70;;;;;;5025563;28;20077;-56
2021/11/16 04:11:37;;;;;;;17.02;10.90;;;10.10;91.70;;;;;;5027482;28;20179;-56
2021/11/16 04:14:04;;;;;;;16.75;9.57;;;10.10;91.80;;;;;;5027130;28;20045;-57
2021/11/16 04:16:31;;;;;;;17.92;8.93;;;10.10;91.70;;;;;;5026171;28;20079;-56
2021/11/16 04:18:58;;;;;;;20.67;9.88;;;10.20;91.80;;;;;;5030943;28;20076;-56
2021/11/16 04:21:26;;;;;;;14.02;8.15;;;10.10;91.90;;;;;;5022702;28;20050;-56
2021/11/16 04:23:53;;;;;;;19.58;8.77;;;10.10;91.90;;;;;;5030767;28;20050;-57
2021/11/16 04:26:20;;;;;;;17.83;8.77;;;10.10;92.00;;;;;;5029785;28;20045;-58
2021/11/16 04:28:47;;;;;;;17.85;9.38;;;10.20;92.00;;;;;;5031161;28;20083;-56
2021/11/16 04:31:14;;;;;;;13.32;9.15;;;10.10;92.00;;;;;;5024892;28;20456;-58
2021/11/16 04:33:43;;;;;;;21.15;8.68;;;10.10;92.00;;;;;;5028480;28;20046;-56
2021/11/16 04:36:12;;;;;;;20.77;9.55;;;10.10;92.10;;;;;;5030562;28;20122;-55
2021/11/16 04:38:38;;;;;;;45.72;12.02;;;10.20;92.20;;;;;;5030749;28;20664;-55
2021/11/16 04:41:05;;;;;;;18.60;9.30;;;10.20;92.10;;;;;;5028107;28;20087;-57
2021/11/16 04:43:32;;;;;;;14.82;8.35;;;10.20;92.10;;;;;;5020243;28;20095;-57
2021/11/16 04:46:05;;;;;;;19.83;9.82;;;10.20;92.10;;;;;;5028396;28;20068;-56
2021/11/16 05:04:18;;;;;;;15.57;8.43;;;10.20;92.20;;;;;;5027609;28;20046;-57
2021/11/16 05:06:45;;;;;;;23.23;9.98;;;10.10;92.20;;;;;;5025206;28;20103;-56
2021/11/16 05:09:15;;;;;;;17.50;9.90;;;10.10;92.20;;;;;;5030409;28;20053;-56
2021/11/16 05:11:42;;;;;;;20.75;8.77;;;10.10;92.30;;;;;;5029689;28;20409;-57
2021/11/16 05:14:10;;;;;;;14.05;8.07;;;10.10;92.30;;;;;;5024100;28;20606;-56
2021/11/16 05:16:36;;;;;;;11.77;8.07;;;10.10;92.30;;;;;;5021385;28;20080;-53
2021/11/16 05:19:04;;;;;;;14.63;8.13;;;10.10;92.30;;;;;;5023891;28;20173;-57
2021/11/16 05:21:31;;;;;;;18.95;8.23;;;10.10;92.30;;;;;;5026751;28;20627;-56
2021/11/16 05:23:59;;;;;;;17.88;8.45;;;10.10;92.40;;;;;;5028939;28;20096;-56
2021/11/16 05:26:27;;;;;;;20.33;9.10;;;10.10;92.40;;;;;;5030187;28;20107;-55
2021/11/16 05:28:55;;;;;;;16.42;7.95;;;10.10;92.40;;;;;;5021156;28;20046;-54
2021/11/16 05:31:22;;;;;;;20.98;9.10;;;9.90;92.50;;;;;;5030085;28;20095;-56
2021/11/16 05:33:49;;;;;;;17.83;8.30;;;10.00;92.50;;;;;;5029523;28;20567;-56
2021/11/16 05:36:16;;;;;;;17.17;7.53;;;10.00;92.60;;;;;;5022103;28;20087;-57
2021/11/16 05:38:45;;;;;;;19.42;8.85;;;10.00;92.60;;;;;;5023877;28;20110;-56
2021/11/16 05:41:13;;;;;;;18.77;9.57;;;10.00;92.70;;;;;;5027441;28;20088;-61
2021/11/16 05:43:41;;;;;;;18.20;8.65;;;10.00;92.70;;;;;;5021758;28;20112;-57
2021/11/16 05:46:09;;;;;;;16.48;8.40;;;10.00;92.70;;;;;;5021843;28;20057;-59
2021/11/16 05:48:36;;;;;;;20.58;9.35;;;10.00;92.80;;;;;;5029003;28;20115;-55
2021/11/16 05:51:04;;;;;;;20.70;9.18;;;10.00;92.70;;;;;;5027701;28;20046;-55
2021/11/16 05:53:31;;;;;;;19.38;8.68;;;10.00;92.80;;;;;;5027557;28;20115;-57
2021/11/16 05:55:58;;;;;;;18.50;8.05;;;9.90;92.80;;;;;;5028524;28;20073;-57
2021/11/16 05:58:25;;;;;;;15.80;8.77;;;9.90;92.90;;;;;;5024670;28;20045;-56
2021/11/16 06:00:52;;;;;;;15.82;9.35;;;9.90;93.00;;;;;;5025064;28;20060;-56
2021/11/16 06:03:19;;;;;;;17.85;8.43;;;9.90;92.90;;;;;;5027243;28;20128;-56
2021/11/16 06:05:45;;;;;;;17.02;8.30;;;9.90;92.90;;;;;;5028610;28;20456;-58
2021/11/16 06:08:38;;;;;;;15.65;8.60;;;9.90;92.90;;;;;;5028798;28;20491;-57
2021/11/16 06:11:05;;;;;;;12.30;7.85;;;9.90;93.30;;;;;;5023383;28;20080;-56
2021/11/16 06:13:32;;;;;;;15.43;8.70;;;9.90;92.90;;;;;;5024271;28;20504;-57
2021/11/16 06:15:59;;;;;;;23.00;8.25;;;9.90;92.90;;;;;;5025010;28;20081;-56
2021/11/16 06:18:27;;;;;;;21.83;9.07;;;9.80;92.80;;;;;;5024466;28;20046;-54
2021/11/16 06:20:54;;;;;;;15.75;9.20;;;9.80;92.80;;;;;;5025153;28;20145;-58
2021/11/16 06:23:21;;;;;;;12.85;8.63;;;9.70;92.80;;;;;;5021007;28;20096;-56
2021/11/16 06:25:48;;;;;;;17.38;8.50;;;9.70;92.80;;;;;;5028817;28;20389;-58
2021/11/16 06:28:15;;;;;;;13.65;7.68;;;9.70;92.80;;;;;;5021099;28;20065;-57
2021/11/16 06:30:42;;;;;;;16.23;8.23;;;9.60;92.80;;;;;;5028735;28;20049;-56
2021/11/16 06:33:09;;;;;;;18.30;7.88;;;9.50;92.80;;;;;;5021712;28;20116;-53
2021/11/16 06:35:35;;;;;;;19.48;8.35;;;9.50;92.80;;;;;;5024432;28;20146;-57
2021/11/16 06:38:02;;;;;;;13.93;7.80;;;9.40;92.80;;;;;;5026653;28;20045;-56
2021/11/16 06:40:29;;;;;;;16.40;8.73;;;9.40;92.90;;;;;;5026031;28;20072;-55
2021/11/16 06:42:56;;;;;;;17.90;8.43;;;9.30;92.90;;;;;;5019540;28;20308;-56
2021/11/16 06:45:23;;;;;;;16.08;8.57;;;9.30;93.00;;;;;;5026048;28;20038;-55
2021/11/16 06:47:49;;;;;;;21.52;9.85;;;9.20;93.00;;;;;;5026150;28;20104;-55
2021/11/16 06:50:16;;;;;;;14.07;7.88;;;9.20;93.10;;;;;;5024475;28;20052;-57
2021/11/16 06:52:43;;;;;;;19.90;8.52;;;9.10;93.20;;;;;;5028104;28;20141;-55
2021/11/16 06:55:10;;;;;;;18.50;9.43;;;9.10;93.40;;;;;;5020800;28;20077;-54
2021/11/16 06:57:38;;;;;;;15.07;9.00;;;9.00;93.40;;;;;;5017278;28;20050;-59
2021/11/16 07:00:06;;;;;;;20.95;9.90;;;9.00;93.40;;;;;;5020280;28;20049;-56
2021/11/16 07:02:33;;;;;;;19.00;9.90;;;8.90;93.50;;;;;;5019958;28;20233;-55
2021/11/16 07:05:00;;;;;;;16.60;9.75;;;8.90;93.50;;;;;;5019389;28;20726;-55
2021/11/16 07:07:27;;;;;;;24.50;10.48;;;8.90;93.50;;;;;;5006106;28;20045;-55
2021/11/16 07:09:54;;;;;;;14.15;9.48;;;8.80;93.50;;;;;;5017925;28;20489;-54
2021/11/16 07:12:25;;;;;;;21.02;9.38;;;8.80;93.50;;;;;;5025332;28;20106;-55
2021/11/16 07:14:52;;;;;;;17.25;9.07;;;8.70;94.00;;;;;;5020291;28;20046;-57
2021/11/16 07:17:19;;;;;;;29.80;11.15;;;8.60;93.80;;;;;;5023270;28;20053;-54
2021/11/16 07:19:53;;;;;;;16.67;9.43;;;8.50;93.80;;;;;;5025977;28;20041;-55
2021/11/16 07:22:24;;;;;;;18.83;11.25;;;8.50;93.90;;;;;;5023892;28;20060;-55
2021/11/16 07:24:53;;;;;;;23.13;12.32;;;8.50;93.90;;;;;;5024177;28;20132;-56
2021/11/16 07:27:21;;;;;;;22.40;10.85;;;8.40;93.80;;;;;;5024525;28;20476;-55
2021/11/16 07:29:52;;;;;;;24.60;11.07;;;8.40;93.70;;;;;;5026720;28;20136;-55
2021/11/16 07:32:24;;;;;;;21.30;10.57;;;8.40;93.70;;;;;;5021414;28;20080;-54
2021/11/16 07:34:52;;;;;;;22.83;11.10;;;8.40;93.70;;;;;;5020352;28;20492;-55
2021/11/16 07:37:20;;;;;;;20.65;10.55;;;8.40;93.60;;;;;;5021598;28;20108;-55
2021/11/16 07:39:54;;;;;;;22.38;12.07;;;8.30;93.60;;;;;;5021325;28;20083;-53
2021/11/16 07:42:23;;;;;;;21.90;11.85;;;8.30;93.60;;;;;;5020273;28;20042;-55
2021/11/16 07:45:27;;;;;;;20.92;11.15;;;8.30;93.60;;;;;;5022479;28;20627;-56
2021/11/16 07:47:59;;;;;;;22.55;11.05;;;8.20;94.10;;;;;;4963722;28;20138;-55
2021/11/16 07:50:29;;;;;;;25.25;12.02;;;8.20;93.70;;;;;;5016354;28;20069;-56
2021/11/16 07:53:24;;;;;;;21.23;11.02;;;8.20;93.70;;;;;;5022828;28;20073;-54
2021/11/16 07:55:51;;;;;;;23.52;12.60;;;8.10;93.90;;;;;;5023936;28;20160;-55
2021/11/16 07:58:18;;;;;;;18.45;11.45;;;8.10;93.70;;;;;;5020805;28;20054;-52
2021/11/16 08:00:47;;;;;;;24.58;12.35;;;8.10;93.70;;;;;;5017968;28;20108;-55
2021/11/16 08:03:17;;;;;;;19.75;10.75;;;8.10;93.70;;;;;;5034565;28;20062;-55
2021/11/16 08:05:55;;;;;;;18.63;10.80;;;8.00;93.70;;;;;;5026944;28;20049;-55
2021/11/16 08:11:33;;;;;;;19.60;10.27;;;8.00;93.70;;;;;;5022076;28;20125;-55
2021/11/16 08:14:05;;;;;;;25.50;12.68;;;8.00;93.90;;;;;;5024546;28;20081;-56
2021/11/16 08:16:36;;;;;;;20.88;11.13;;;8.00;93.70;;;;;;5020248;28;20042;-56
2021/11/16 08:19:07;;;;;;;23.23;11.65;;;7.90;93.80;;;;;;5018453;28;20056;-55
2021/11/16 08:21:41;;;;;;;25.80;12.85;;;7.90;93.80;;;;;;5020006;28;20054;-53
2021/11/16 08:24:10;;;;;;;20.50;11.73;;;7.90;94.00;;;;;;5024353;28;20087;-55
2021/11/16 08:26:42;;;;;;;22.73;11.52;;;7.90;94.00;;;;;;5021659;28;20520;-54
2021/11/16 08:29:11;;;;;;;25.00;12.38;;;7.90;93.90;;;;;;5022500;28;20056;-56
2021/11/16 08:31:49;;;;;;;22.48;11.00;;;8.00;94.00;;;;;;5019223;28;20096;-52
2021/11/16 08:34:16;;;;;;;22.45;12.85;;;8.00;94.20;;;;;;5021084;28;20053;-52
2021/11/16 08:36:46;;;;;;;21.42;12.32;;;8.00;94.00;;;;;;5025746;28;20084;-53
2021/11/16 08:39:14;;;;;;;23.45;11.27;;;8.10;94.00;;;;;;5022703;28;20088;-52
2021/11/16 08:41:41;;;;;;;19.50;10.63;;;8.10;93.90;;;;;;5021561;28;20460;-53
2021/11/16 08:44:22;;;;;;;24.30;12.57;;;8.20;93.90;;;;;;5021501;28;20176;-55
2021/11/16 08:46:50;;;;;;;20.15;11.55;;;8.20;94.20;;;;;;5023616;28;20041;-53
2021/11/16 08:49:26;;;;;;;24.80;12.02;;;8.20;93.90;;;;;;5021388;28;20132;-56
2021/11/16 08:51:53;;;;;;;24.58;11.38;;;8.30;94.10;;;;;;5016199;28;20517;-52
2021/11/16 08:54:30;;;;;;;31.27;11.55;;;8.30;93.90;;;;;;5020936;28;20053;-54
2021/11/16 08:57:00;;;;;;;16.05;9.55;;;8.40;94.00;;;;;;5013845;28;20042;-55
2021/11/16 08:59:27;;;;;;;22.25;11.40;;;8.40;93.80;;;;;;5016192;28;20124;-56
2021/11/16 09:01:58;;;;;;;23.08;11.13;;;8.40;93.70;;;;;;5017223;28;20058;-55
2021/11/16 09:04:31;;;;;;;23.90;11.48;;;8.50;93.60;;;;;;5022545;28;20453;-54
2021/11/16 09:06:58;;;;;;;17.83;11.05;;;8.50;93.60;;;;;;5021762;28;20099;-56
2021/11/16 09:09:25;;;;;;;19.05;10.27;;;8.50;93.40;;;;;;5022231;28;20132;-56
2021/11/16 09:11:58;;;;;;;24.70;12.50;;;8.50;93.50;;;;;;5029858;28;20088;-54
2021/11/16 09:14:25;;;;;;;21.30;10.65;;;8.40;93.60;;;;;;5028440;28;20088;-56
2021/11/16 09:16:52;;;;;;;19.80;10.88;;;8.50;93.70;;;;;;5008691;28;20045;-56
2021/11/16 09:19:32;;;;;;;18.55;10.77;;;8.60;93.60;;;;;;5037075;28;20057;-54
2021/11/16 09:21:59;;;;;;;18.27;9.80;;;8.70;93.50;;;;;;5029609;28;20159;-57
2021/11/16 09:24:31;;;;;;;15.90;9.15;;;8.70;93.40;;;;;;5022184;28;20081;-55
2021/11/16 09:27:45;;;;;;;17.50;9.32;;;8.80;93.40;;;;;;5029598;28;20068;-53
2021/11/16 09:29:48;;;;;;;16.67;10.27;;;8.80;93.40;;;;;;5008166;28;20103;-56
2021/11/16 09:32:15;;;;;;;20.25;10.63;;;8.80;93.30;;;;;;5021439;28;20092;-55
2021/11/16 09:34:44;;;;;;;20.10;10.52;;;8.80;93.30;;;;;;5021662;28;20045;-55
2021/11/16 09:37:15;;;;;;;22.38;10.85;;;8.80;93.30;;;;;;5038069;28;20072;-51
2021/11/16 09:39:59;;;;;;;23.63;10.38;;;8.80;93.30;;;;;;5017592;28;20049;-54
2021/11/16 09:42:28;;;;;;;;;;;8.80;93.20;;;;;;5021174;28;20053;-54
2021/11/16 09:44:59;;;;;;;18.90;9.00;;;8.90;92.90;;;;;;5021247;28;20032;-53
2021/11/16 09:47:34;;;;;;;23.13;11.98;;;8.90;93.30;;;;;;5020577;28;20046;-54
2021/11/16 09:50:09;;;;;;;18.63;10.45;;;8.90;93.00;;;;;;5028041;28;20056;-53
2021/11/16 09:52:42;;;;;;;20.65;10.77;;;9.00;93.00;;;;;;5022581;28;20042;-55
2021/11/16 09:55:14;;;;;;;19.45;11.25;;;9.10;92.90;;;;;;5018730;28;20658;-54
2021/11/16 09:57:47;;;;;;;18.45;10.75;;;9.20;92.80;;;;;;5025513;28;20045;-53
2021/11/16 10:00:24;;;;;;;30.30;12.40;;;9.20;92.70;;;;;;5026795;28;20050;-55
2021/11/16 10:02:55;;;;;;;22.90;11.25;;;9.30;92.70;;;;;;5028109;28;20488;-51
2021/11/16 10:05:23;;;;;;;17.15;11.35;;;9.40;92.50;;;;;;5020600;28;20140;-53
2021/11/16 10:07:52;;;;;;;20.63;9.70;;;9.40;92.20;;;;;;5027468;28;20281;-54
2021/11/16 10:10:21;;;;;;;21.85;12.52;;;9.60;92.40;;;;;;5014314;28;20057;-55
2021/11/16 10:12:55;;;;;;;17.55;11.05;;;9.50;91.90;;;;;;5023493;28;20053;-55
2021/11/16 10:15:24;;;;;;;20.65;11.18;;;9.50;92.00;;;;;;5017581;28;20069;-55
2021/11/16 10:17:52;;;;;;;23.15;12.25;;;9.60;91.70;;;;;;5017791;28;20499;-55
2021/11/16 10:20:25;;;;;;;18.73;10.65;;;9.70;91.90;;;;;;5026678;28;20552;-54
2021/11/16 10:23:37;;;;;;;23.20;10.37;;;9.80;91.80;;;;;;5017442;28;20080;-55
2021/11/16 10:26:04;;;;;;;15.57;10.13;;;9.80;91.40;;;;;;5013600;28;20326;-56
2021/11/16 10:28:32;;;;;;;20.70;11.75;;;9.90;91.70;;;;;;5023753;28;20485;-54
2021/11/16 10:30:59;;;;;;;18.90;10.55;;;9.90;91.60;;;;;;5021878;28;20077;-54
2021/11/16 10:33:34;;;;;;;18.00;9.30;;;10.00;91.50;;;;;;5024675;28;20056;-53
2021/11/16 10:36:05;;;;;;;18.02;10.43;;;10.00;90.70;;;;;;5018958;28;20092;-57
2021/11/16 10:38:35;;;;;;;16.25;9.80;;;10.00;90.50;;;;;;5019322;28;20053;-53
2021/11/16 10:41:04;;;;;;;15.57;8.48;;;10.10;90.80;;;;;;5017581;28;20145;-55
2021/11/16 10:43:39;;;;;;;12.45;8.32;;;10.20;90.20;;;;;;5017336;28;20048;-55
2021/11/16 10:46:07;;;;;;;17.15;9.50;;;10.10;87.70;;;;;;5016345;28;20084;-52
2021/11/16 10:48:34;;;;;;;18.65;9.80;;;10.20;90.20;;;;;;5026449;28;20048;-55
2021/11/16 10:51:09;;;;;;;18.58;10.70;;;10.20;89.80;;;;;;5028068;28;20064;-55
2021/11/16 10:53:36;;;;;;;16.17;10.07;;;10.20;89.70;;;;;;5028132;28;20122;-55
2021/11/16 10:56:05;;;;;;;17.90;9.75;;;10.30;87.40;;;;;;5021002;28;20049;-54
2021/11/16 10:58:39;;;;;;;20.60;9.80;;;10.30;90.00;;;;;;5020418;28;20107;-54
2021/11/16 11:01:08;;;;;;;15.52;9.90;;;10.30;88.00;;;;;;5019317;28;20131;-51
2021/11/16 11:03:42;;;;;;;23.65;9.80;;;10.30;88.70;;;;;;5028324;28;20128;-55
2021/11/16 11:06:11;;;;;;;20.45;9.98;;;10.40;88.90;;;;;;5027453;28;20081;-53
2021/11/16 11:08:57;;;;;;;15.60;9.88;;;10.40;88.40;;;;;;5027854;28;20777;-55
2021/11/16 11:11:34;;;;;;;16.65;9.35;;;10.50;87.50;;;;;;5020019;28;20041;-55
2021/11/16 11:14:03;;;;;;;13.40;9.23;;;10.50;85.90;;;;;;5027311;28;20676;-54
2021/11/16 11:16:32;;;;;;;17.15;9.52;;;10.60;86.80;;;;;;5023183;28;20053;-53
2021/11/16 11:19:01;;;;;;;15.27;9.32;;;10.60;87.90;;;;;;5022860;28;20139;-55
2021/11/16 11:21:39;;;;;;;17.52;9.32;;;10.70;84.70;;;;;;5017554;28;20140;-55
2021/11/16 11:24:22;;;;;;;14.60;7.82;;;10.80;86.80;;;;;;5027287;28;20045;-52
2021/11/16 11:26:59;;;;;;;14.90;9.38;;;10.90;83.50;;;;;;5022676;28;20081;-54
2021/11/16 11:29:46;;;;;;;18.45;9.90;;;11.00;86.80;;;;;;5024383;28;20084;-51
2021/11/16 11:32:17;;;;;;;17.23;9.45;;;11.00;83.40;;;;;;5021882;28;20141;-57
2021/11/16 11:34:59;;;;;;;16.27;9.13;;;11.10;84.30;;;;;;5027152;28;20555;-54
2021/11/16 11:37:32;;;;;;;15.50;9.70;;;11.10;84.30;;;;;;5021596;28;20103;-55
2021/11/16 11:40:11;;;;;;;16.25;9.43;;;11.20;85.30;;;;;;5025995;28;20091;-53
2021/11/16 11:42:44;;;;;;;16.20;9.30;;;11.20;82.10;;;;;;5027461;28;20148;-58
2021/11/16 11:45:23;;;;;;;17.30;9.77;;;11.30;84.60;;;;;;5018771;28;20512;-54
2021/11/16 11:47:54;;;;;;;20.25;9.43;;;11.30;82.40;;;;;;5026258;28;20072;-53
2021/11/16 11:50:31;;;;;;;12.23;8.15;;;11.20;82.40;;;;;;5017553;28;20503;-51
2021/11/16 11:52:59;;;;;;;20.92;9.20;;;11.20;80.50;;;;;;5019420;28;20561;-54
2021/11/16 11:55:26;;;;;;;14.30;7.85;;;11.20;84.50;;;;;;5026449;28;20045;-52
2021/11/16 11:57:54;;;;;;;15.15;9.63;;;11.30;85.60;;;;;;5017825;28;20172;-52
2021/11/16 12:00:23;;;;;;;16.55;9.57;;;11.30;85.30;;;;;;5024942;28;20041;-57
2021/11/16 12:02:50;;;;;;;17.58;9.75;;;11.40;84.60;;;;;;5012305;28;20054;-56
2021/11/16 12:05:17;;;;;;;15.77;9.05;;;11.30;84.50;;;;;;5024108;28;20083;-55
2021/11/16 12:07:44;;;;;;;21.80;10.13;;;11.30;83.10;;;;;;5024270;28;20056;-55
2021/11/16 12:10:11;;;;;;;18.58;7.95;;;11.20;84.00;;;;;;5037489;28;20053;-54
2021/11/16 12:12:38;;;;;;;12.18;7.22;;;11.30;84.90;;;;;;5018970;28;20077;-53
2021/11/16 12:15:22;;;;;;;16.63;7.57;;;11.40;82.10;;;;;;5026762;28;20103;-54
2021/11/16 12:17:55;;;;;;;13.50;7.45;;;11.40;81.40;;;;;;5024540;28;20077;-57
2021/11/16 12:20:38;;;;;;;13.40;8.32;;;11.30;83.10;;;;;;5027582;28;20041;-54
2021/11/16 12:23:07;;;;;;;13.32;8.52;;;11.30;81.70;;;;;;5024443;28;20112;-52
2021/11/16 12:25:34;;;;;;;14.10;8.55;;;11.30;82.70;;;;;;5027486;28;20084;-54
2021/11/16 12:28:25;;;;;;;15.73;8.70;;;11.30;84.00;;;;;;5025921;28;20057;-53
2021/11/16 12:30:55;;;;;;;15.07;7.45;;;11.30;81.40;;;;;;5025663;28;20049;-55
2021/11/16 12:33:41;;;;;;;18.98;10.07;;;11.30;83.10;;;;;;5023716;28;20492;-54
2021/11/16 12:36:11;;;;;;;12.60;6.90;;;11.40;80.20;;;;;;5026303;28;20546;-55
2021/11/16 12:38:47;;;;;;;12.02;5.90;;;11.50;83.00;;;;;;5028729;28;20045;-55
2021/11/16 12:41:33;;;;;;;17.13;6.13;;;11.60;80.20;;;;;;5030902;28;20307;-52
2021/11/16 12:44:32;;;;;;;9.48;4.63;;;11.60;79.20;;;;;;5029782;28;20065;-55
2021/11/16 12:47:04;;;;;;;8.38;4.57;;;11.70;78.90;;;;;;5010330;28;20588;-54
2021/11/16 12:49:36;;;;;;;8.02;4.85;;;11.70;80.80;;;;;;5021649;28;20049;-55
2021/11/16 12:52:05;;;;;;;8.73;5.25;;;11.80;83.30;;;;;;5030613;28;20077;-54
2021/11/16 12:54:35;;;;;;;10.25;5.65;;;11.80;82.60;;;;;;5030502;28;20069;-58
2021/11/16 12:57:05;;;;;;;6.88;4.32;;;11.90;80.70;;;;;;5029870;28;20090;-56
2021/11/16 12:59:32;;;;;;;9.02;4.93;;;11.80;80.00;;;;;;5031016;28;20057;-53
2021/11/16 13:02:03;;;;;;;8.00;5.10;;;11.80;82.50;;;;;;5030086;28;20180;-56
2021/11/16 13:04:50;;;;;;;8.45;4.32;;;11.90;81.10;;;;;;5030986;28;20057;-55
2021/11/16 13:07:20;;;;;;;10.68;5.45;;;11.90;79.10;;;;;;5024025;28;20065;-54
2021/11/16 13:09:55;;;;;;;9.13;5.38;;;11.90;79.80;;;;;;5030918;28;20365;-55
2021/11/16 13:12:40;;;;;;;15.18;5.05;;;11.80;80.80;;;;;;5015931;28;20124;-55